createdAt,value
2023-02-13T00:01:41.177Z,22.60
2023-02-13T00:03:41.525Z,22.20
2023-02-13T00:05:41.982Z,20.90
2023-02-13T00:07:42.475Z,22.00
2023-02-13T00:09:43.134Z,22.60
2023-02-13T00:11:43.472Z,21.60
2023-02-13T00:13:43.745Z,21.60
2023-02-13T00:15:44.137Z,21.10
2023-02-13T00:17:44.594Z,21.90
2023-02-13T00:19:44.894Z,21.70
2023-02-13T00:21:45.239Z,20.80
2023-02-13T00:23:45.545Z,21.90
2023-02-13T00:25:45.851Z,21.10
2023-02-13T00:27:46.169Z,23.20
2023-02-13T00:29:46.442Z,23.60
2023-02-13T00:31:46.858Z,22.90
2023-02-13T00:33:47.227Z,22.20
2023-02-13T00:35:47.536Z,23.40
2023-02-13T00:37:47.924Z,23.40
2023-02-13T00:39:48.264Z,23.00
2023-02-13T00:41:48.584Z,23.20
2023-02-13T00:43:48.923Z,21.50
2023-02-13T00:45:49.260Z,22.70
2023-02-13T00:47:49.558Z,22.90
2023-02-13T00:49:49.880Z,21.20
2023-02-13T00:51:50.264Z,21.80
2023-02-13T00:53:50.584Z,22.40
2023-02-13T00:55:50.861Z,21.50
2023-02-13T00:57:51.149Z,21.40
2023-02-13T00:59:51.894Z,23.20
2023-02-13T01:01:52.301Z,23.30
2023-02-13T01:03:52.657Z,22.20
2023-02-13T01:05:53.130Z,21.20
2023-02-13T01:07:53.487Z,21.70
2023-02-13T01:09:53.769Z,20.90
2023-02-13T01:11:54.107Z,21.30
2023-02-13T01:13:54.373Z,20.90
2023-02-13T01:15:54.717Z,20.90
2023-02-13T01:17:55.082Z,21.30
2023-02-13T01:19:55.388Z,22.30
2023-02-13T01:21:55.751Z,20.80
2023-02-13T01:23:56.185Z,22.00
2023-02-13T01:25:56.521Z,20.90
2023-02-13T01:27:56.953Z,21.30
2023-02-13T01:29:57.272Z,22.10
2023-02-13T01:31:57.590Z,21.10
2023-02-13T01:33:57.987Z,22.70
2023-02-13T01:35:58.528Z,20.60
2023-02-13T01:37:58.819Z,22.10
2023-02-13T01:39:59.078Z,21.30
2023-02-13T01:41:59.459Z,21.20
2023-02-13T01:43:59.797Z,19.90
2023-02-13T01:46:00.119Z,21.40
2023-02-13T01:48:01.333Z,20.70
2023-02-13T01:50:01.898Z,19.90
2023-02-13T01:52:02.182Z,21.10
2023-02-13T01:54:02.577Z,21.80
2023-02-13T01:56:07.675Z,20.60
2023-02-13T01:58:08.004Z,21.70
2023-02-13T02:00:08.300Z,20.40
2023-02-13T02:02:08.643Z,20.90
2023-02-13T02:04:09.002Z,20.00
2023-02-13T02:06:09.261Z,21.30
2023-02-13T02:08:09.588Z,20.40
2023-02-13T02:10:09.914Z,20.30
2023-02-13T02:12:10.243Z,20.50
2023-02-13T02:14:11.297Z,19.20
2023-02-13T02:16:11.643Z,18.50
2023-02-13T02:18:12.049Z,20.40
2023-02-13T02:20:12.300Z,21.60
2023-02-13T02:22:12.586Z,19.20
2023-02-13T02:24:12.895Z,19.50
2023-02-13T02:26:13.200Z,19.20
2023-02-13T02:28:13.504Z,20.50
2023-02-13T02:30:13.790Z,20.60
2023-02-13T02:32:14.122Z,20.70
2023-02-13T02:34:14.513Z,21.40
2023-02-13T02:36:14.865Z,21.40
2023-02-13T02:38:15.232Z,19.50
2023-02-13T02:40:16.304Z,19.50
2023-02-13T02:42:16.615Z,20.60
2023-02-13T02:44:17.017Z,19.90
2023-02-13T02:46:17.348Z,20.10
2023-02-13T02:48:17.619Z,22.80
2023-02-13T02:50:17.888Z,20.50
2023-02-13T02:52:18.280Z,21.00
2023-02-13T02:54:18.554Z,20.20
2023-02-13T02:56:18.881Z,20.30
2023-02-13T02:58:19.352Z,21.30
2023-02-13T03:00:19.623Z,20.70
2023-02-13T03:02:19.879Z,21.10
2023-02-13T03:04:20.295Z,21.60
2023-02-13T03:06:20.601Z,23.10
2023-02-13T03:08:21.124Z,24.00
2023-02-13T03:10:21.634Z,24.20
2023-02-13T03:12:22.149Z,21.90
2023-02-13T03:14:22.687Z,21.30
2023-02-13T03:16:23.334Z,19.90
2023-02-13T03:18:23.816Z,24.70
2023-02-13T03:20:24.382Z,23.20
2023-02-13T03:22:24.698Z,25.30
2023-02-13T03:24:24.959Z,27.80
2023-02-13T03:26:25.486Z,26.80
2023-02-13T03:28:25.846Z,28.90
2023-02-13T03:30:26.238Z,31.60
2023-02-13T03:32:27.297Z,30.00
2023-02-13T03:34:27.577Z,28.40
2023-02-13T03:36:27.940Z,29.40
2023-02-13T03:38:28.283Z,28.40
2023-02-13T03:40:28.535Z,29.80
2023-02-13T03:42:29.199Z,30.00
2023-02-13T03:44:30.305Z,30.00
2023-02-13T03:46:30.585Z,29.90
2023-02-13T03:48:30.918Z,29.60
2023-02-13T03:50:31.275Z,29.20
2023-02-13T03:52:31.811Z,29.80
2023-02-13T03:54:32.076Z,31.40
2023-02-13T03:56:32.577Z,30.00
2023-02-13T03:58:32.862Z,30.30
2023-02-13T04:00:33.799Z,26.90
2023-02-13T04:02:34.107Z,26.50
2023-02-13T04:04:34.693Z,27.40
2023-02-13T04:06:35.263Z,28.70
2023-02-13T04:08:36.307Z,24.40
2023-02-13T04:10:36.573Z,26.10
2023-02-13T04:12:37.029Z,26.30
2023-02-13T04:14:37.812Z,23.00
2023-02-13T04:16:38.154Z,24.20
2023-02-13T04:18:43.244Z,24.90
2023-02-13T04:20:43.722Z,24.40
2023-02-13T04:22:44.030Z,23.40
2023-02-13T04:24:44.378Z,23.20
2023-02-13T04:26:44.844Z,22.60
2023-02-13T04:28:45.116Z,21.00
2023-02-13T04:30:45.554Z,20.80
2023-02-13T04:32:45.836Z,22.90
2023-02-13T04:34:46.425Z,23.80
2023-02-13T04:36:46.759Z,25.40
2023-02-13T04:38:47.014Z,24.70
2023-02-13T04:40:47.426Z,24.50
2023-02-13T04:42:47.686Z,24.30
2023-02-13T04:44:48.051Z,26.70
2023-02-13T04:46:48.326Z,30.30
2023-02-13T04:48:48.625Z,30.20
2023-02-13T04:50:49.038Z,29.30
2023-02-13T04:52:49.316Z,30.20
2023-02-13T04:54:49.632Z,28.20
2023-02-13T04:56:49.993Z,26.80
2023-02-13T04:58:50.266Z,29.80
2023-02-13T05:00:50.592Z,30.50
2023-02-13T05:02:51.841Z,33.40
2023-02-13T05:04:52.243Z,33.90
2023-02-13T05:06:52.555Z,32.30
2023-02-13T05:08:53.179Z,32.20
2023-02-13T05:10:53.537Z,31.70
2023-02-13T05:12:53.839Z,31.50
2023-02-13T05:14:54.165Z,34.00
2023-02-13T05:16:54.544Z,34.60
2023-02-13T05:18:54.970Z,35.80
2023-02-13T05:20:57.362Z,39.70
2023-02-13T05:22:59.029Z,38.80
2023-02-13T05:24:59.781Z,40.30
2023-02-13T05:27:00.716Z,36.90
2023-02-13T05:29:01.061Z,34.90
2023-02-13T05:31:02.116Z,37.90
2023-02-13T05:33:02.803Z,39.90
2023-02-13T05:35:04.499Z,37.10
2023-02-13T05:37:04.930Z,37.30
2023-02-13T05:39:05.391Z,38.10
2023-02-13T05:41:05.670Z,37.20
2023-02-13T05:43:06.881Z,36.60
2023-02-13T05:45:12.096Z,41.10
2023-02-13T05:47:12.402Z,45.50
2023-02-13T05:49:12.938Z,40.40
2023-02-13T05:51:13.228Z,37.20
2023-02-13T05:53:13.521Z,37.50
2023-02-13T05:55:14.033Z,35.80
2023-02-13T05:57:19.137Z,36.10
2023-02-13T05:59:19.401Z,36.10
2023-02-13T06:01:19.855Z,48.20
2023-02-13T06:04:03.974Z,45.10
2023-02-13T06:06:04.842Z,44.20
2023-02-13T06:08:05.326Z,41.30
2023-02-13T06:10:06.810Z,42.00
2023-02-13T06:12:07.305Z,39.20
2023-02-13T06:14:51.031Z,45.50
2023-02-13T06:16:51.823Z,45.90
2023-02-13T06:19:41.241Z,42.20
2023-02-13T06:21:41.912Z,42.30
2023-02-13T06:23:42.226Z,42.90
2023-02-13T06:25:42.611Z,40.40
2023-02-13T06:27:42.938Z,39.70
2023-02-13T06:29:48.067Z,35.80
2023-02-13T06:31:48.418Z,41.10
2023-02-13T06:33:49.084Z,43.60
2023-02-13T06:35:49.436Z,40.80
2023-02-13T06:37:49.717Z,40.60
2023-02-13T06:40:37.089Z,37.80
2023-02-13T06:42:38.090Z,40.30
2023-02-13T06:45:41.872Z,42.10
2023-02-13T06:48:28.309Z,38.90
2023-02-13T06:50:28.638Z,42.40
2023-02-13T06:52:29.163Z,35.00
2023-02-13T07:01:42.184Z,36.90
2023-02-13T07:04:51.195Z,48.70
2023-02-13T07:06:51.649Z,46.70
2023-02-13T07:08:52.137Z,39.90
2023-02-13T07:10:52.432Z,42.30
2023-02-13T07:13:04.919Z,38.10
2023-02-13T07:15:41.484Z,41.20
2023-02-13T07:17:42.148Z,39.90
2023-02-13T07:19:43.334Z,38.10
2023-02-13T07:22:26.568Z,35.80
2023-02-13T07:25:10.310Z,38.00
2023-02-13T07:27:10.884Z,38.20
2023-02-13T07:29:12.428Z,37.50
2023-02-13T07:31:13.169Z,37.60
2023-02-13T07:33:13.817Z,37.80
2023-02-13T07:35:56.673Z,38.80
2023-02-13T07:37:58.485Z,39.60
2023-02-13T07:43:52.092Z,41.40
2023-02-13T07:48:25.283Z,40.00
2023-02-13T07:51:09.757Z,36.90
2023-02-13T07:53:10.353Z,38.60
2023-02-13T07:58:08.866Z,41.60
2023-02-13T08:01:23.638Z,44.40
2023-02-13T08:04:31.377Z,40.90
2023-02-13T08:06:31.900Z,41.00
2023-02-13T08:08:32.494Z,42.70
2023-02-13T08:10:32.887Z,42.00
2023-02-13T08:12:33.507Z,42.60
2023-02-13T08:14:33.826Z,45.10
2023-02-13T08:16:34.318Z,41.10
2023-02-13T08:18:39.404Z,43.60
2023-02-13T08:20:39.795Z,42.40
2023-02-13T08:22:40.254Z,44.00
2023-02-13T08:24:40.754Z,44.30
2023-02-13T08:26:41.480Z,44.20
2023-02-13T08:28:42.132Z,41.60
2023-02-13T08:30:43.216Z,41.50
2023-02-13T08:33:28.785Z,44.60
2023-02-13T08:36:16.449Z,46.00
2023-02-13T08:38:16.889Z,44.20
2023-02-13T08:40:17.301Z,36.20
2023-02-13T08:42:17.781Z,36.70
2023-02-13T08:44:18.159Z,33.80
2023-02-13T08:46:18.642Z,32.90
2023-02-13T08:48:24.336Z,32.20
2023-02-13T08:50:24.727Z,32.40
2023-02-13T08:52:25.060Z,32.70
2023-02-13T08:54:25.387Z,35.30
2023-02-13T08:57:18.119Z,39.20
2023-02-13T08:59:18.674Z,40.30
2023-02-13T09:01:19.318Z,35.10
2023-02-13T09:03:19.900Z,36.80
2023-02-13T09:05:20.365Z,39.00
2023-02-13T09:07:21.067Z,35.60
2023-02-13T09:09:21.601Z,40.40
2023-02-13T09:11:21.855Z,36.20
2023-02-13T09:13:22.285Z,38.50
2023-02-13T09:15:22.592Z,34.40
2023-02-13T09:17:22.931Z,35.70
2023-02-13T09:19:23.214Z,29.80
2023-02-13T09:21:23.519Z,31.90
2023-02-13T09:23:23.812Z,29.40
2023-02-13T09:25:24.221Z,34.70
2023-02-13T09:27:24.506Z,27.70
2023-02-13T09:29:24.960Z,32.60
2023-02-13T09:31:27.223Z,29.60
2023-02-13T09:33:29.461Z,31.60
2023-02-13T09:35:29.801Z,32.90
2023-02-13T09:37:35.163Z,29.10
2023-02-13T09:40:32.875Z,28.10
2023-02-13T09:42:33.603Z,28.30
2023-02-13T09:45:21.087Z,28.60
2023-02-13T09:47:21.619Z,29.50
2023-02-13T09:49:22.123Z,29.40
2023-02-13T09:51:22.677Z,27.30
2023-02-13T09:53:23.215Z,30.10
2023-02-13T09:55:23.690Z,30.20
2023-02-13T09:57:24.204Z,30.50
2023-02-13T09:59:24.694Z,30.30
2023-02-13T10:01:25.194Z,27.60
2023-02-13T10:03:25.615Z,29.80
2023-02-13T10:05:26.012Z,29.10
2023-02-13T10:07:26.479Z,28.70
2023-02-13T10:09:26.928Z,28.90
2023-02-13T10:11:27.588Z,29.20
2023-02-13T10:13:27.901Z,27.30
2023-02-13T10:15:28.331Z,28.20
2023-02-13T10:17:28.764Z,27.10
2023-02-13T10:19:29.038Z,28.30
2023-02-13T10:21:29.484Z,26.10
2023-02-13T10:23:29.995Z,27.60
2023-02-13T10:25:30.658Z,28.70
2023-02-13T10:27:31.042Z,28.80
2023-02-13T10:29:31.542Z,27.60
2023-02-13T10:31:35.044Z,27.80
2023-02-13T10:33:35.711Z,28.80
2023-02-13T10:35:36.264Z,27.70
2023-02-13T10:37:36.673Z,27.80
2023-02-13T10:39:37.145Z,27.80
2023-02-13T10:41:37.759Z,27.10
2023-02-13T10:43:38.219Z,28.80
2023-02-13T10:45:38.684Z,27.70
2023-02-13T10:47:39.058Z,27.20
2023-02-13T10:49:39.591Z,28.10
2023-02-13T10:51:44.817Z,27.30
2023-02-13T10:53:45.227Z,26.70
2023-02-13T10:55:45.703Z,26.20
2023-02-13T10:57:46.369Z,26.90
2023-02-13T10:59:47.091Z,26.90
2023-02-13T11:01:47.694Z,26.00
2023-02-13T11:03:48.657Z,26.90
2023-02-13T11:05:49.314Z,26.40
2023-02-13T11:09:14.199Z,26.70
2023-02-13T11:13:37.745Z,26.30
2023-02-13T11:17:25.934Z,26.10
2023-02-13T11:19:28.075Z,28.20
2023-02-13T11:27:42.389Z,24.70
2023-02-13T11:29:44.748Z,23.80
2023-02-13T11:31:46.309Z,24.30
2023-02-13T11:35:42.997Z,21.60
2023-02-13T11:39:36.400Z,20.60
2023-02-13T11:44:23.570Z,20.20
2023-02-13T11:46:24.179Z,19.80
2023-02-13T11:48:24.722Z,20.80
2023-02-13T11:52:04.928Z,20.70
2023-02-13T11:54:05.301Z,19.70
2023-02-13T11:56:06.498Z,18.00
2023-02-13T11:58:09.737Z,16.90
2023-02-13T12:00:10.252Z,16.80
2023-02-13T12:03:05.336Z,17.40
2023-02-13T12:06:07.522Z,18.80
2023-02-13T12:09:04.883Z,17.10
2023-02-13T12:11:05.419Z,16.70
2023-02-13T12:14:43.824Z,18.20
2023-02-13T12:16:44.597Z,17.80
2023-02-13T12:18:45.150Z,16.70
2023-02-13T12:20:45.811Z,17.80
2023-02-13T12:22:46.138Z,18.60
2023-02-13T12:24:46.420Z,18.20
2023-02-13T12:26:46.832Z,17.40
2023-02-13T12:28:47.221Z,17.50
2023-02-13T12:30:47.654Z,16.40
2023-02-13T12:32:48.087Z,18.10
2023-02-13T12:34:48.417Z,17.40
2023-02-13T12:36:49.056Z,16.90
2023-02-13T12:38:49.490Z,17.30
2023-02-13T12:40:49.855Z,17.30
2023-02-13T12:42:50.243Z,17.40
2023-02-13T12:44:50.621Z,16.40
2023-02-13T12:46:51.047Z,16.30
2023-02-13T12:48:51.625Z,16.80
2023-02-13T12:50:51.958Z,16.10
2023-02-13T12:52:52.545Z,15.80
2023-02-13T12:56:03.415Z,15.90
2023-02-13T12:58:04.032Z,16.00
2023-02-13T13:00:04.630Z,16.90
2023-02-13T13:02:04.976Z,16.10
2023-02-13T13:04:05.431Z,15.60
2023-02-13T13:06:12.617Z,16.40
2023-02-13T13:08:11.067Z,15.20
2023-02-13T13:10:11.558Z,16.10
2023-02-13T13:12:54.935Z,14.70
2023-02-13T13:14:55.235Z,15.00
2023-02-13T13:16:55.693Z,15.40
2023-02-13T13:18:57.136Z,15.80
2023-02-13T13:20:58.693Z,15.00
2023-02-13T13:22:59.185Z,14.40
2023-02-13T13:24:59.520Z,14.60
2023-02-13T13:26:59.857Z,15.10
2023-02-13T13:29:00.172Z,16.20
2023-02-13T13:31:01.105Z,15.90
2023-02-13T13:33:01.558Z,16.40
2023-02-13T13:35:01.911Z,14.80
2023-02-13T13:37:02.265Z,15.70
2023-02-13T13:39:02.740Z,15.70
2023-02-13T13:41:03.183Z,15.30
2023-02-13T13:43:03.732Z,15.30
2023-02-13T13:45:04.407Z,14.70
2023-02-13T13:47:04.725Z,15.00
2023-02-13T13:49:05.055Z,15.60
2023-02-13T13:51:05.456Z,15.60
2023-02-13T13:53:05.820Z,16.10
2023-02-13T13:55:06.121Z,14.90
2023-02-13T13:57:06.560Z,15.20
2023-02-13T13:59:06.921Z,15.70
2023-02-13T14:01:07.363Z,14.90
2023-02-13T14:03:08.800Z,15.80
2023-02-13T14:05:10.925Z,14.60
2023-02-13T14:07:11.863Z,15.20
2023-02-13T14:09:12.354Z,14.40
2023-02-13T14:11:12.751Z,15.00
2023-02-13T14:13:13.035Z,15.50
2023-02-13T14:15:13.452Z,15.00
2023-02-13T14:17:13.739Z,14.90
2023-02-13T14:19:14.036Z,15.90
2023-02-13T14:21:14.367Z,14.90
2023-02-13T14:23:14.785Z,14.50
2023-02-13T14:25:15.126Z,15.00
2023-02-13T14:27:15.392Z,14.70
2023-02-13T14:29:15.686Z,14.70
2023-02-13T14:31:16.135Z,14.60
2023-02-13T14:33:16.770Z,14.10
2023-02-13T14:35:17.100Z,14.80
2023-02-13T14:37:17.566Z,14.70
2023-02-13T14:39:18.072Z,14.80
2023-02-13T14:41:18.357Z,14.80
2023-02-13T14:43:18.688Z,14.40
2023-02-13T14:45:19.922Z,14.30
2023-02-13T14:47:20.253Z,14.30
2023-02-13T14:50:02.914Z,13.80
2023-02-13T14:52:45.616Z,13.40
2023-02-13T14:54:45.980Z,14.60
2023-02-13T14:56:46.352Z,14.10
2023-02-13T14:58:46.787Z,13.40
2023-02-13T15:01:34.693Z,12.70
2023-02-13T15:04:33.692Z,13.80
2023-02-13T15:06:34.286Z,13.20
2023-02-13T15:08:34.887Z,13.80
2023-02-13T15:10:35.945Z,12.90
2023-02-13T15:12:36.240Z,13.20
2023-02-13T15:14:36.516Z,12.70
2023-02-13T15:16:37.142Z,12.50
2023-02-13T15:18:37.516Z,10.90
2023-02-13T15:20:37.858Z,11.20
2023-02-13T15:22:39.546Z,11.40
2023-02-13T15:24:39.941Z,11.00
2023-02-13T15:26:40.964Z,11.40
2023-02-13T15:29:31.126Z,11.00
2023-02-13T15:31:30.824Z,11.80
2023-02-13T15:33:31.335Z,11.50
2023-02-13T15:35:31.829Z,12.00
2023-02-13T15:37:32.249Z,11.80
2023-02-13T15:39:32.526Z,11.70
2023-02-13T15:41:32.863Z,12.00
2023-02-13T15:43:33.211Z,11.50
2023-02-13T15:45:33.706Z,12.20
2023-02-13T15:47:34.079Z,11.80
2023-02-13T15:49:34.414Z,10.90
2023-02-13T15:51:34.925Z,12.00
2023-02-13T15:53:35.443Z,11.30
2023-02-13T15:55:35.786Z,11.60
2023-02-13T15:57:36.378Z,11.70
2023-02-13T15:59:36.949Z,11.40
2023-02-13T16:01:37.676Z,11.60
2023-02-13T16:03:38.404Z,11.80
2023-02-13T16:05:40.813Z,11.30
2023-02-13T16:07:41.511Z,12.80
2023-02-13T16:09:42.109Z,11.40
2023-02-13T16:11:42.497Z,11.50
2023-02-13T16:13:43.120Z,11.70
2023-02-13T16:15:43.644Z,11.40
2023-02-13T16:17:44.069Z,11.30
2023-02-13T16:19:44.349Z,11.60
2023-02-13T16:21:44.916Z,11.50
2023-02-13T16:23:45.860Z,11.80
2023-02-13T16:25:46.321Z,11.70
2023-02-13T16:33:46.672Z,11.20
2023-02-13T16:48:31.793Z,12.50
2023-02-13T16:50:33.560Z,12.70
2023-02-13T16:52:35.086Z,12.80
2023-02-13T16:55:25.428Z,12.70
2023-02-13T16:57:25.828Z,13.30
2023-02-13T16:59:26.162Z,13.80
2023-02-13T17:01:26.633Z,14.60
2023-02-13T17:03:27.065Z,14.60
2023-02-13T17:05:27.406Z,14.90
2023-02-13T17:07:27.793Z,14.80
2023-02-13T17:09:28.152Z,16.30
2023-02-13T17:11:28.435Z,16.30
2023-02-13T17:13:28.816Z,16.80
2023-02-13T17:15:29.247Z,16.70
2023-02-13T17:17:29.560Z,16.70
2023-02-13T17:19:29.931Z,16.10
2023-02-13T17:21:30.276Z,16.40
2023-02-13T17:23:30.613Z,17.00
2023-02-13T17:25:31.369Z,17.00
2023-02-13T17:27:31.760Z,16.30
2023-02-13T17:29:32.087Z,17.10
2023-02-13T17:31:32.815Z,16.60
2023-02-13T17:34:16.742Z,17.70
2023-02-13T17:36:17.293Z,17.40
2023-02-13T17:38:18.014Z,17.80
2023-02-13T17:40:18.396Z,16.90
2023-02-13T17:42:18.809Z,17.70
2023-02-13T17:44:19.361Z,18.70
2023-02-13T17:46:20.480Z,17.60
2023-02-13T17:48:20.824Z,17.60
2023-02-13T17:50:21.152Z,16.50
2023-02-13T17:52:21.544Z,18.00
2023-02-13T17:54:21.848Z,17.90
2023-02-13T18:02:57.144Z,18.50
2023-02-13T18:48:08.911Z,20.60
2023-02-13T18:50:09.768Z,19.90
2023-02-13T18:52:18.067Z,21.50
2023-02-13T18:54:18.507Z,18.70
2023-02-13T18:56:18.848Z,21.80
2023-02-13T18:58:20.810Z,18.50
2023-02-13T19:00:21.700Z,21.30
2023-02-13T19:02:23.879Z,19.00
2023-02-13T19:08:04.841Z,19.80
2023-02-13T19:10:05.509Z,19.60
2023-02-13T19:12:06.253Z,20.30
2023-02-13T19:14:07.187Z,20.80
2023-02-13T19:40:13.553Z,26.70
2023-02-13T19:46:21.327Z,22.60
2023-02-13T19:48:24.356Z,23.20
2023-02-13T19:50:25.067Z,24.00
2023-02-13T19:52:25.482Z,22.10
2023-02-13T19:54:25.728Z,23.40
2023-02-13T20:04:47.596Z,25.20
2023-02-13T20:09:07.118Z,28.60
2023-02-13T20:11:59.133Z,30.30
2023-02-13T20:13:59.875Z,29.50
2023-02-13T20:16:01.968Z,29.30
2023-02-13T20:19:20.070Z,28.60
2023-02-13T20:25:06.590Z,26.50
2023-02-13T20:28:56.056Z,29.70
2023-02-13T20:35:36.495Z,28.00
2023-02-13T20:41:46.434Z,27.40
2023-02-13T20:43:47.557Z,25.80
2023-02-13T20:45:48.200Z,26.00
2023-02-13T20:47:48.762Z,25.10
2023-02-13T20:49:49.078Z,23.90
2023-02-13T20:51:49.720Z,24.70
2023-02-13T20:53:50.331Z,26.20
2023-02-13T20:55:50.678Z,25.60
2023-02-13T20:57:50.987Z,25.20
2023-02-13T20:59:51.323Z,25.60
2023-02-13T21:01:51.673Z,26.90
2023-02-13T21:03:52.021Z,25.20
2023-02-13T21:05:52.364Z,25.60
2023-02-13T21:07:52.686Z,26.60
2023-02-13T21:09:52.968Z,26.40
2023-02-13T21:11:53.289Z,27.00
2023-02-13T21:13:53.661Z,24.90
2023-02-13T21:15:56.952Z,26.50
2023-02-13T21:17:57.481Z,23.70
2023-02-13T21:20:41.105Z,27.30
2023-02-13T21:27:02.900Z,26.90
2023-02-13T21:29:04.714Z,25.80
2023-02-13T21:31:05.243Z,25.70
2023-02-13T21:33:06.538Z,25.20
2023-02-13T21:35:07.112Z,24.20
2023-02-13T21:37:07.942Z,24.90
2023-02-13T21:40:48.816Z,28.90
2023-02-13T21:42:49.167Z,27.10
2023-02-13T21:44:49.665Z,23.80
2023-02-13T21:46:50.366Z,23.70
2023-02-13T21:49:57.271Z,30.90
2023-02-13T21:54:32.584Z,30.20
2023-02-13T21:56:32.921Z,28.90
2023-02-13T21:58:33.233Z,32.90
2023-02-13T22:00:33.616Z,28.90
2023-02-13T22:02:34.034Z,29.00
2023-02-13T22:04:34.432Z,30.80
2023-02-13T22:06:34.718Z,36.50
2023-02-13T22:08:35.020Z,40.10
2023-02-13T22:10:35.339Z,39.90
2023-02-13T22:12:35.704Z,40.70
2023-02-13T22:14:36.038Z,38.60
2023-02-13T22:16:36.969Z,37.30
2023-02-13T22:18:37.271Z,37.60
2023-02-13T22:20:37.580Z,34.80
2023-02-13T22:22:37.904Z,35.20
2023-02-13T22:24:38.226Z,37.30
2023-02-13T22:26:38.574Z,32.90
2023-02-13T22:28:38.825Z,34.80
2023-02-13T22:30:39.317Z,32.20
2023-02-13T22:32:39.655Z,32.30
2023-02-13T22:34:39.955Z,33.60
2023-02-13T22:36:40.462Z,33.50
2023-02-13T22:38:40.818Z,33.40
2023-02-13T22:40:41.136Z,33.70
2023-02-13T22:42:41.409Z,31.00
2023-02-13T22:44:47.357Z,32.40
2023-02-13T22:46:47.614Z,31.10
2023-02-13T22:48:47.941Z,31.40
2023-02-13T22:50:48.327Z,30.40
2023-02-13T22:52:48.650Z,29.00
2023-02-13T22:54:48.956Z,30.20
2023-02-13T22:56:49.236Z,29.60
2023-02-13T22:58:49.576Z,27.80
2023-02-13T23:00:49.987Z,28.20
2023-02-13T23:02:50.352Z,28.20
2023-02-13T23:04:50.658Z,27.80
2023-02-13T23:06:50.979Z,26.60
2023-02-13T23:08:51.240Z,25.60
2023-02-13T23:10:51.553Z,25.60
2023-02-13T23:12:51.859Z,24.70
2023-02-13T23:14:52.198Z,23.60
2023-02-13T23:16:52.619Z,24.10
2023-02-13T23:18:52.852Z,25.70
2023-02-13T23:20:53.144Z,27.90
2023-02-13T23:22:53.454Z,25.70
2023-02-13T23:24:53.808Z,26.10
2023-02-13T23:26:54.171Z,24.90
2023-02-13T23:28:54.490Z,23.80
2023-02-13T23:30:54.846Z,21.90
2023-02-13T23:32:55.185Z,22.00
2023-02-13T23:34:55.436Z,22.30
2023-02-13T23:36:55.753Z,21.30
2023-02-13T23:38:56.031Z,21.70
2023-02-13T23:40:56.502Z,22.40
2023-02-13T23:42:56.863Z,22.40
2023-02-13T23:44:57.230Z,21.60
2023-02-13T23:46:57.508Z,22.10
2023-02-13T23:48:57.832Z,21.50
2023-02-13T23:50:58.484Z,21.50
2023-02-13T23:52:58.936Z,21.60
2023-02-13T23:54:59.306Z,22.20
2023-02-13T23:56:59.685Z,22.50
2023-02-13T23:59:00.049Z,22.30
